< < Back
Terminal Aerodrome Forecast


Current Version              Previous Versions:   1  2  3  4  5  6  7  8  9  

Terminal Aerodrome Forecast

526
FTUS42 KTAE 181100
TAFTLH
TAF
KTLH 181121Z 1812/1912 VRB03KT P6SM SCT250
     FM181400 33005KT P6SM BKN250
     FM182000 21007KT P6SM SCT050 BKN250
     FM190300 00000KT P6SM BKN250=

Latest METAR

855
SAUS80 KWBC 182100 RRA
MTRTLH
METAR KTLH 182053Z 32005KT 10SM SCT050 BKN250 32/18 A2989 RMK AO2 SLP118
T03220183 56013 $


USA.gov is the U.S. government's official web portal to all federal, state and local government web resources and services.